sensor_id;sensor_type;location;lat;lon;timestamp;P1;durP1;ratioP1;P2;durP2;ratioP2
4096;SDS011;2062;50.694;7.246;2023-06-14T00:01:18;7.10;;;4.90;;
4096;SDS011;2062;50.694;7.246;2023-06-14T00:03:45;9.13;;;4.88;;
4096;SDS011;2062;50.694;7.246;2023-06-14T00:06:12;9.57;;;5.00;;
4096;SDS011;2062;50.694;7.246;2023-06-14T00:08:39;8.18;;;4.90;;
4096;SDS011;2062;50.694;7.246;2023-06-14T00:11:07;9.27;;;5.25;;
4096;SDS011;2062;50.694;7.246;2023-06-14T00:13:34;10.50;;;5.00;;
4096;SDS011;2062;50.694;7.246;2023-06-14T00:16:01;7.10;;;4.18;;
4096;SDS011;2062;50.694;7.246;2023-06-14T00:18:29;7.70;;;4.87;;
4096;SDS011;2062;50.694;7.246;2023-06-14T00:20:56;9.50;;;4.40;;
4096;SDS011;2062;50.694;7.246;2023-06-14T00:23:22;7.38;;;4.53;;
4096;SDS011;2062;50.694;7.246;2023-06-14T00:25:49;8.45;;;4.80;;
4096;SDS011;2062;50.694;7.246;2023-06-14T00:28:17;7.68;;;4.65;;
4096;SDS011;2062;50.694;7.246;2023-06-14T00:30:44;8.03;;;4.60;;
4096;SDS011;2062;50.694;7.246;2023-06-14T00:33:11;7.47;;;4.40;;
4096;SDS011;2062;50.694;7.246;2023-06-14T00:35:38;9.48;;;4.53;;
4096;SDS011;2062;50.694;7.246;2023-06-14T00:38:05;8.25;;;4.72;;
4096;SDS011;2062;50.694;7.246;2023-06-14T00:40:32;9.52;;;4.75;;
4096;SDS011;2062;50.694;7.246;2023-06-14T00:42:59;8.83;;;4.60;;
4096;SDS011;2062;50.694;7.246;2023-06-14T00:45:28;9.05;;;4.80;;
4096;SDS011;2062;50.694;7.246;2023-06-14T00:47:56;9.45;;;4.65;;
4096;SDS011;2062;50.694;7.246;2023-06-14T00:50:23;9.48;;;4.70;;
4096;SDS011;2062;50.694;7.246;2023-06-14T00:52:51;7.70;;;4.50;;
4096;SDS011;2062;50.694;7.246;2023-06-14T00:55:18;8.57;;;4.37;;
4096;SDS011;2062;50.694;7.246;2023-06-14T00:57:45;9.10;;;4.40;;
4096;SDS011;2062;50.694;7.246;2023-06-14T01:00:12;8.75;;;4.38;;
4096;SDS011;2062;50.694;7.246;2023-06-14T01:02:41;7.20;;;4.22;;
4096;SDS011;2062;50.694;7.246;2023-06-14T01:05:08;7.40;;;4.28;;
4096;SDS011;2062;50.694;7.246;2023-06-14T01:07:40;7.87;;;4.53;;
4096;SDS011;2062;50.694;7.246;2023-06-14T01:10:25;7.65;;;4.47;;
4096;SDS011;2062;50.694;7.246;2023-06-14T01:12:58;8.52;;;4.80;;
4096;SDS011;2062;50.694;7.246;2023-06-14T01:15:31;7.53;;;4.45;;
4096;SDS011;2062;50.694;7.246;2023-06-14T01:17:59;10.07;;;4.90;;
4096;SDS011;2062;50.694;7.246;2023-06-14T01:20:29;9.20;;;4.50;;
4096;SDS011;2062;50.694;7.246;2023-06-14T01:22:58;7.40;;;4.30;;
4096;SDS011;2062;50.694;7.246;2023-06-14T01:25:25;8.57;;;4.30;;
4096;SDS011;2062;50.694;7.246;2023-06-14T01:27:53;7.93;;;4.70;;
4096;SDS011;2062;50.694;7.246;2023-06-14T01:30:23;8.00;;;4.70;;
4096;SDS011;2062;50.694;7.246;2023-06-14T01:32:52;8.20;;;4.70;;
4096;SDS011;2062;50.694;7.246;2023-06-14T01:35:20;8.90;;;4.60;;
4096;SDS011;2062;50.694;7.246;2023-06-14T01:37:48;9.73;;;4.45;;
4096;SDS011;2062;50.694;7.246;2023-06-14T01:40:17;7.70;;;4.50;;
4096;SDS011;2062;50.694;7.246;2023-06-14T01:42:45;8.95;;;4.88;;
4096;SDS011;2062;50.694;7.246;2023-06-14T01:45:13;8.53;;;4.17;;
4096;SDS011;2062;50.694;7.246;2023-06-14T01:47:41;8.20;;;4.30;;
4096;SDS011;2062;50.694;7.246;2023-06-14T01:50:09;7.28;;;4.40;;
4096;SDS011;2062;50.694;7.246;2023-06-14T01:52:36;8.35;;;4.60;;
4096;SDS011;2062;50.694;7.246;2023-06-14T01:55:13;9.27;;;4.50;;
4096;SDS011;2062;50.694;7.246;2023-06-14T01:57:44;7.83;;;4.10;;
4096;SDS011;2062;50.694;7.246;2023-06-14T02:00:11;8.75;;;4.40;;
4096;SDS011;2062;50.694;7.246;2023-06-14T02:02:39;7.85;;;4.35;;
4096;SDS011;2062;50.694;7.246;2023-06-14T02:05:06;8.38;;;4.38;;
4096;SDS011;2062;50.694;7.246;2023-06-14T02:07:34;8.15;;;3.92;;
4096;SDS011;2062;50.694;7.246;2023-06-14T02:10:01;7.23;;;4.00;;
4096;SDS011;2062;50.694;7.246;2023-06-14T02:12:28;12.13;;;4.03;;
4096;SDS011;2062;50.694;7.246;2023-06-14T02:14:56;8.50;;;4.07;;
4096;SDS011;2062;50.694;7.246;2023-06-14T02:17:23;7.93;;;3.90;;
4096;SDS011;2062;50.694;7.246;2023-06-14T02:19:51;6.72;;;3.95;;
4096;SDS011;2062;50.694;7.246;2023-06-14T02:22:17;10.43;;;4.20;;
4096;SDS011;2062;50.694;7.246;2023-06-14T02:24:46;6.90;;;4.00;;
4096;SDS011;2062;50.694;7.246;2023-06-14T02:27:13;7.85;;;4.43;;
4096;SDS011;2062;50.694;7.246;2023-06-14T02:29:40;8.70;;;4.20;;
4096;SDS011;2062;50.694;7.246;2023-06-14T02:32:08;7.35;;;4.07;;
4096;SDS011;2062;50.694;7.246;2023-06-14T02:34:35;6.70;;;3.73;;
4096;SDS011;2062;50.694;7.246;2023-06-14T02:37:05;8.70;;;4.10;;
4096;SDS011;2062;50.694;7.246;2023-06-14T02:39:33;7.57;;;3.90;;
4096;SDS011;2062;50.694;7.246;2023-06-14T02:41:59;7.65;;;3.85;;
4096;SDS011;2062;50.694;7.246;2023-06-14T02:44:26;7.35;;;4.13;;
4096;SDS011;2062;50.694;7.246;2023-06-14T02:46:53;8.47;;;4.07;;
4096;SDS011;2062;50.694;7.246;2023-06-14T02:49:22;10.43;;;3.72;;
4096;SDS011;2062;50.694;7.246;2023-06-14T02:51:48;6.88;;;3.65;;
4096;SDS011;2062;50.694;7.246;2023-06-14T02:54:15;7.32;;;4.20;;
4096;SDS011;2062;50.694;7.246;2023-06-14T02:56:42;9.50;;;3.90;;
4096;SDS011;2062;50.694;7.246;2023-06-14T02:59:09;7.93;;;4.00;;
4096;SDS011;2062;50.694;7.246;2023-06-14T03:01:36;7.85;;;4.10;;
4096;SDS011;2062;50.694;7.246;2023-06-14T03:04:06;12.05;;;4.28;;
4096;SDS011;2062;50.694;7.246;2023-06-14T03:06:34;8.77;;;4.20;;
4096;SDS011;2062;50.694;7.246;2023-06-14T03:09:02;9.00;;;3.97;;
4096;SDS011;2062;50.694;7.246;2023-06-14T03:11:30;7.33;;;4.03;;
4096;SDS011;2062;50.694;7.246;2023-06-14T03:13:58;7.28;;;3.92;;
4096;SDS011;2062;50.694;7.246;2023-06-14T03:16:26;7.25;;;3.65;;
4096;SDS011;2062;50.694;7.246;2023-06-14T03:18:55;7.07;;;3.35;;
4096;SDS011;2062;50.694;7.246;2023-06-14T03:21:22;9.15;;;3.60;;
4096;SDS011;2062;50.694;7.246;2023-06-14T03:23:51;8.43;;;3.97;;
4096;SDS011;2062;50.694;7.246;2023-06-14T03:26:18;7.43;;;3.55;;
4096;SDS011;2062;50.694;7.246;2023-06-14T03:28:46;7.57;;;3.60;;
4096;SDS011;2062;50.694;7.246;2023-06-14T03:31:13;7.82;;;3.55;;
4096;SDS011;2062;50.694;7.246;2023-06-14T03:33:40;6.80;;;3.88;;
4096;SDS011;2062;50.694;7.246;2023-06-14T03:36:07;11.57;;;3.80;;
4096;SDS011;2062;50.694;7.246;2023-06-14T03:38:34;7.72;;;3.58;;
4096;SDS011;2062;50.694;7.246;2023-06-14T03:41:02;7.75;;;3.60;;
4096;SDS011;2062;50.694;7.246;2023-06-14T03:43:29;7.97;;;3.97;;
4096;SDS011;2062;50.694;7.246;2023-06-14T03:45:56;8.85;;;4.18;;
4096;SDS011;2062;50.694;7.246;2023-06-14T03:48:23;8.60;;;3.77;;
4096;SDS011;2062;50.694;7.246;2023-06-14T03:50:49;6.57;;;3.75;;
4096;SDS011;2062;50.694;7.246;2023-06-14T03:53:17;8.68;;;3.45;;
4096;SDS011;2062;50.694;7.246;2023-06-14T03:55:45;6.47;;;3.38;;
4096;SDS011;2062;50.694;7.246;2023-06-14T03:58:14;6.90;;;3.40;;
4096;SDS011;2062;50.694;7.246;2023-06-14T04:00:41;11.17;;;3.63;;
4096;SDS011;2062;50.694;7.246;2023-06-14T04:03:08;7.47;;;3.53;;
4096;SDS011;2062;50.694;7.246;2023-06-14T04:05:35;7.60;;;3.28;;
4096;SDS011;2062;50.694;7.246;2023-06-14T04:08:02;6.32;;;3.45;;
4096;SDS011;2062;50.694;7.246;2023-06-14T04:10:29;6.80;;;3.17;;
4096;SDS011;2062;50.694;7.246;2023-06-14T04:12:56;7.40;;;3.60;;
4096;SDS011;2062;50.694;7.246;2023-06-14T04:15:24;8.10;;;3.38;;
4096;SDS011;2062;50.694;7.246;2023-06-14T04:17:53;6.70;;;3.38;;
4096;SDS011;2062;50.694;7.246;2023-06-14T04:20:22;7.18;;;3.60;;
4096;SDS011;2062;50.694;7.246;2023-06-14T04:22:50;8.88;;;3.72;;
4096;SDS011;2062;50.694;7.246;2023-06-14T04:25:17;7.87;;;3.20;;
4096;SDS011;2062;50.694;7.246;2023-06-14T04:27:45;8.38;;;3.85;;
4096;SDS011;2062;50.694;7.246;2023-06-14T04:30:12;7.70;;;3.65;;
4096;SDS011;2062;50.694;7.246;2023-06-14T04:32:40;5.72;;;3.28;;
4096;SDS011;2062;50.694;7.246;2023-06-14T04:35:07;8.95;;;3.45;;
4096;SDS011;2062;50.694;7.246;2023-06-14T04:37:35;8.00;;;3.73;;
4096;SDS011;2062;50.694;7.246;2023-06-14T04:40:05;8.15;;;3.72;;
4096;SDS011;2062;50.694;7.246;2023-06-14T04:42:33;10.40;;;4.03;;
4096;SDS011;2062;50.694;7.246;2023-06-14T04:45:02;6.53;;;3.50;;
4096;SDS011;2062;50.694;7.246;2023-06-14T04:47:29;6.70;;;3.97;;
4096;SDS011;2062;50.694;7.246;2023-06-14T04:49:58;9.23;;;3.70;;
4096;SDS011;2062;50.694;7.246;2023-06-14T04:52:25;6.28;;;3.50;;
4096;SDS011;2062;50.694;7.246;2023-06-14T04:54:54;9.13;;;4.10;;
4096;SDS011;2062;50.694;7.246;2023-06-14T04:57:21;8.68;;;3.85;;
4096;SDS011;2062;50.694;7.246;2023-06-14T04:59:50;6.80;;;3.25;;
4096;SDS011;2062;50.694;7.246;2023-06-14T05:02:19;8.17;;;3.87;;
4096;SDS011;2062;50.694;7.246;2023-06-14T05:04:47;7.90;;;3.40;;
4096;SDS011;2062;50.694;7.246;2023-06-14T05:07:15;8.13;;;3.90;;
4096;SDS011;2062;50.694;7.246;2023-06-14T05:09:42;7.70;;;3.55;;
4096;SDS011;2062;50.694;7.246;2023-06-14T05:12:08;8.40;;;3.42;;
4096;SDS011;2062;50.694;7.246;2023-06-14T05:14:35;10.10;;;3.70;;
4096;SDS011;2062;50.694;7.246;2023-06-14T05:17:03;9.73;;;3.70;;
4096;SDS011;2062;50.694;7.246;2023-06-14T05:19:30;8.43;;;3.50;;
4096;SDS011;2062;50.694;7.246;2023-06-14T05:21:56;6.18;;;3.50;;
4096;SDS011;2062;50.694;7.246;2023-06-14T05:24:25;10.18;;;3.50;;
4096;SDS011;2062;50.694;7.246;2023-06-14T05:26:51;7.57;;;3.47;;
4096;SDS011;2062;50.694;7.246;2023-06-14T05:29:18;8.30;;;3.50;;
4096;SDS011;2062;50.694;7.246;2023-06-14T05:31:45;12.70;;;3.88;;
4096;SDS011;2062;50.694;7.246;2023-06-14T05:34:12;11.93;;;3.50;;
4096;SDS011;2062;50.694;7.246;2023-06-14T05:36:38;10.68;;;3.70;;
4096;SDS011;2062;50.694;7.246;2023-06-14T05:39:05;10.03;;;3.60;;
4096;SDS011;2062;50.694;7.246;2023-06-14T05:41:34;10.43;;;4.30;;
4096;SDS011;2062;50.694;7.246;2023-06-14T05:44:01;8.05;;;3.63;;
4096;SDS011;2062;50.694;7.246;2023-06-14T05:46:28;6.50;;;3.40;;
4096;SDS011;2062;50.694;7.246;2023-06-14T05:48:55;8.10;;;3.63;;
4096;SDS011;2062;50.694;7.246;2023-06-14T05:51:23;8.33;;;3.77;;
4096;SDS011;2062;50.694;7.246;2023-06-14T05:53:51;10.05;;;3.58;;
4096;SDS011;2062;50.694;7.246;2023-06-14T05:56:19;9.50;;;3.60;;
4096;SDS011;2062;50.694;7.246;2023-06-14T05:58:47;8.32;;;3.40;;
4096;SDS011;2062;50.694;7.246;2023-06-14T06:01:14;9.75;;;3.92;;
4096;SDS011;2062;50.694;7.246;2023-06-14T06:03:41;15.13;;;4.00;;
4096;SDS011;2062;50.694;7.246;2023-06-14T06:06:10;8.02;;;3.53;;
4096;SDS011;2062;50.694;7.246;2023-06-14T06:08:37;11.15;;;3.58;;
4096;SDS011;2062;50.694;7.246;2023-06-14T06:11:04;11.30;;;3.78;;
4096;SDS011;2062;50.694;7.246;2023-06-14T06:13:31;7.78;;;3.47;;
4096;SDS011;2062;50.694;7.246;2023-06-14T06:15:59;12.53;;;3.70;;
4096;SDS011;2062;50.694;7.246;2023-06-14T06:18:26;8.43;;;3.45;;
4096;SDS011;2062;50.694;7.246;2023-06-14T06:20:52;10.18;;;3.60;;
4096;SDS011;2062;50.694;7.246;2023-06-14T06:23:20;8.90;;;3.60;;
4096;SDS011;2062;50.694;7.246;2023-06-14T06:25:47;9.88;;;3.47;;
4096;SDS011;2062;50.694;7.246;2023-06-14T06:28:14;9.73;;;3.60;;
4096;SDS011;2062;50.694;7.246;2023-06-14T06:30:41;6.80;;;3.20;;
4096;SDS011;2062;50.694;7.246;2023-06-14T06:33:09;10.73;;;3.42;;
4096;SDS011;2062;50.694;7.246;2023-06-14T06:35:36;8.35;;;3.50;;
4096;SDS011;2062;50.694;7.246;2023-06-14T06:38:03;9.38;;;3.42;;
4096;SDS011;2062;50.694;7.246;2023-06-14T06:40:30;5.60;;;2.83;;
4096;SDS011;2062;50.694;7.246;2023-06-14T06:42:57;8.48;;;3.38;;
4096;SDS011;2062;50.694;7.246;2023-06-14T06:45:24;7.00;;;3.22;;
4096;SDS011;2062;50.694;7.246;2023-06-14T06:47:51;8.95;;;3.80;;
4096;SDS011;2062;50.694;7.246;2023-06-14T06:50:19;8.48;;;3.15;;
4096;SDS011;2062;50.694;7.246;2023-06-14T06:52:48;6.57;;;3.30;;
4096;SDS011;2062;50.694;7.246;2023-06-14T06:55:15;7.78;;;3.05;;
4096;SDS011;2062;50.694;7.246;2023-06-14T06:57:43;9.45;;;3.30;;
4096;SDS011;2062;50.694;7.246;2023-06-14T07:00:10;7.32;;;3.20;;
4096;SDS011;2062;50.694;7.246;2023-06-14T07:02:37;7.82;;;3.10;;
4096;SDS011;2062;50.694;7.246;2023-06-14T07:05:04;7.93;;;3.23;;
4096;SDS011;2062;50.694;7.246;2023-06-14T07:07:33;6.53;;;2.70;;
4096;SDS011;2062;50.694;7.246;2023-06-14T07:10:00;7.60;;;3.25;;
4096;SDS011;2062;50.694;7.246;2023-06-14T07:12:29;6.43;;;2.97;;
4096;SDS011;2062;50.694;7.246;2023-06-14T07:14:58;7.65;;;2.80;;
4096;SDS011;2062;50.694;7.246;2023-06-14T07:17:25;7.40;;;2.93;;
4096;SDS011;2062;50.694;7.246;2023-06-14T07:19:52;6.18;;;2.92;;
4096;SDS011;2062;50.694;7.246;2023-06-14T07:22:19;10.13;;;2.70;;
4096;SDS011;2062;50.694;7.246;2023-06-14T07:24:47;5.63;;;2.53;;
4096;SDS011;2062;50.694;7.246;2023-06-14T07:27:14;6.30;;;2.85;;
4096;SDS011;2062;50.694;7.246;2023-06-14T07:29:41;7.90;;;2.87;;
4096;SDS011;2062;50.694;7.246;2023-06-14T07:32:07;5.25;;;2.53;;
4096;SDS011;2062;50.694;7.246;2023-06-14T07:34:34;6.95;;;2.65;;
4096;SDS011;2062;50.694;7.246;2023-06-14T07:37:01;4.57;;;2.33;;
4096;SDS011;2062;50.694;7.246;2023-06-14T07:39:28;5.47;;;2.28;;
4096;SDS011;2062;50.694;7.246;2023-06-14T07:41:56;6.50;;;2.83;;
4096;SDS011;2062;50.694;7.246;2023-06-14T07:44:22;6.22;;;2.47;;
4096;SDS011;2062;50.694;7.246;2023-06-14T07:46:49;5.38;;;2.50;;
4096;SDS011;2062;50.694;7.246;2023-06-14T07:49:16;6.22;;;2.40;;
4096;SDS011;2062;50.694;7.246;2023-06-14T07:51:43;4.60;;;2.25;;
4096;SDS011;2062;50.694;7.246;2023-06-14T07:54:11;4.77;;;2.30;;
4096;SDS011;2062;50.694;7.246;2023-06-14T07:56:37;6.25;;;2.60;;
4096;SDS011;2062;50.694;7.246;2023-06-14T07:59:05;5.30;;;2.53;;
4096;SDS011;2062;50.694;7.246;2023-06-14T08:01:32;4.28;;;1.85;;
4096;SDS011;2062;50.694;7.246;2023-06-14T08:04:01;5.65;;;2.30;;
4096;SDS011;2062;50.694;7.246;2023-06-14T08:06:27;5.83;;;2.53;;
4096;SDS011;2062;50.694;7.246;2023-06-14T08:08:55;5.75;;;2.10;;
4096;SDS011;2062;50.694;7.246;2023-06-14T08:11:22;6.57;;;2.38;;
4096;SDS011;2062;50.694;7.246;2023-06-14T08:13:50;5.32;;;2.20;;
4096;SDS011;2062;50.694;7.246;2023-06-14T08:16:18;6.82;;;2.40;;
4096;SDS011;2062;50.694;7.246;2023-06-14T08:18:44;4.50;;;2.30;;
4096;SDS011;2062;50.694;7.246;2023-06-14T08:21:11;5.63;;;2.40;;
4096;SDS011;2062;50.694;7.246;2023-06-14T08:23:39;4.88;;;1.98;;
4096;SDS011;2062;50.694;7.246;2023-06-14T08:26:07;5.95;;;1.98;;
4096;SDS011;2062;50.694;7.246;2023-06-14T08:28:34;5.13;;;2.40;;
4096;SDS011;2062;50.694;7.246;2023-06-14T08:31:01;9.07;;;2.40;;
4096;SDS011;2062;50.694;7.246;2023-06-14T08:33:29;4.63;;;2.20;;
4096;SDS011;2062;50.694;7.246;2023-06-14T08:35:58;4.25;;;1.80;;
4096;SDS011;2062;50.694;7.246;2023-06-14T08:38:24;4.57;;;1.77;;
4096;SDS011;2062;50.694;7.246;2023-06-14T08:40:51;4.53;;;2.00;;
4096;SDS011;2062;50.694;7.246;2023-06-14T08:43:22;4.50;;;1.93;;
4096;SDS011;2062;50.694;7.246;2023-06-14T08:45:49;5.57;;;1.95;;
4096;SDS011;2062;50.694;7.246;2023-06-14T08:48:20;5.13;;;2.20;;
4096;SDS011;2062;50.694;7.246;2023-06-14T08:50:51;5.95;;;1.83;;
4096;SDS011;2062;50.694;7.246;2023-06-14T08:53:27;4.82;;;1.88;;
4096;SDS011;2062;50.694;7.246;2023-06-14T08:55:57;4.73;;;2.10;;
4096;SDS011;2062;50.694;7.246;2023-06-14T08:58:25;7.15;;;2.00;;
4096;SDS011;2062;50.694;7.246;2023-06-14T09:00:54;4.95;;;2.15;;
4096;SDS011;2062;50.694;7.246;2023-06-14T09:03:21;5.25;;;2.05;;
4096;SDS011;2062;50.694;7.246;2023-06-14T09:05:55;6.05;;;2.50;;
4096;SDS011;2062;50.694;7.246;2023-06-14T09:08:23;7.20;;;2.27;;
4096;SDS011;2062;50.694;7.246;2023-06-14T09:10:51;4.25;;;1.92;;
4096;SDS011;2062;50.694;7.246;2023-06-14T09:13:17;5.65;;;2.20;;
4096;SDS011;2062;50.694;7.246;2023-06-14T09:15:44;5.10;;;1.95;;
4096;SDS011;2062;50.694;7.246;2023-06-14T09:18:11;4.63;;;2.00;;
4096;SDS011;2062;50.694;7.246;2023-06-14T09:20:38;4.13;;;1.70;;
4096;SDS011;2062;50.694;7.246;2023-06-14T09:23:07;4.80;;;2.00;;
4096;SDS011;2062;50.694;7.246;2023-06-14T09:25:41;5.35;;;2.10;;
4096;SDS011;2062;50.694;7.246;2023-06-14T09:28:09;5.22;;;1.90;;
4096;SDS011;2062;50.694;7.246;2023-06-14T09:30:36;4.53;;;2.10;;
4096;SDS011;2062;50.694;7.246;2023-06-14T09:33:03;5.07;;;1.80;;
4096;SDS011;2062;50.694;7.246;2023-06-14T09:35:30;6.63;;;2.00;;
4096;SDS011;2062;50.694;7.246;2023-06-14T09:37:58;5.13;;;1.83;;
4096;SDS011;2062;50.694;7.246;2023-06-14T09:40:26;4.53;;;1.85;;
4096;SDS011;2062;50.694;7.246;2023-06-14T09:42:53;6.47;;;2.00;;
4096;SDS011;2062;50.694;7.246;2023-06-14T09:45:22;6.07;;;1.90;;
4096;SDS011;2062;50.694;7.246;2023-06-14T09:47:51;6.55;;;2.05;;
4096;SDS011;2062;50.694;7.246;2023-06-14T09:50:17;6.10;;;2.00;;
4096;SDS011;2062;50.694;7.246;2023-06-14T09:52:44;4.75;;;1.73;;
4096;SDS011;2062;50.694;7.246;2023-06-14T09:55:12;4.75;;;2.10;;
4096;SDS011;2062;50.694;7.246;2023-06-14T09:57:42;5.37;;;2.03;;
4096;SDS011;2062;50.694;7.246;2023-06-14T10:00:13;4.85;;;1.80;;
4096;SDS011;2062;50.694;7.246;2023-06-14T10:02:44;4.43;;;1.80;;
4096;SDS011;2062;50.694;7.246;2023-06-14T10:05:15;4.20;;;2.00;;
4096;SDS011;2062;50.694;7.246;2023-06-14T10:07:48;4.93;;;2.08;;
4096;SDS011;2062;50.694;7.246;2023-06-14T10:10:18;6.03;;;1.87;;
4096;SDS011;2062;50.694;7.246;2023-06-14T10:12:47;4.72;;;1.85;;
4096;SDS011;2062;50.694;7.246;2023-06-14T10:15:15;5.63;;;2.15;;
4096;SDS011;2062;50.694;7.246;2023-06-14T10:17:47;4.47;;;2.10;;
4096;SDS011;2062;50.694;7.246;2023-06-14T10:20:21;3.95;;;1.90;;
4096;SDS011;2062;50.694;7.246;2023-06-14T10:22:55;7.77;;;2.30;;
4096;SDS011;2062;50.694;7.246;2023-06-14T10:25:26;4.45;;;2.08;;
4096;SDS011;2062;50.694;7.246;2023-06-14T10:28:00;5.15;;;2.10;;
4096;SDS011;2062;50.694;7.246;2023-06-14T10:30:29;3.97;;;1.83;;
4096;SDS011;2062;50.694;7.246;2023-06-14T10:33:04;5.00;;;2.20;;
4096;SDS011;2062;50.694;7.246;2023-06-14T10:35:32;4.73;;;1.90;;
4096;SDS011;2062;50.694;7.246;2023-06-14T10:38:08;5.50;;;1.98;;
4096;SDS011;2062;50.694;7.246;2023-06-14T10:40:36;4.68;;;2.38;;
4096;SDS011;2062;50.694;7.246;2023-06-14T10:48:40;3.93;;;2.00;;
4096;SDS011;2062;50.694;7.246;2023-06-14T10:51:15;4.47;;;1.75;;
4096;SDS011;2062;50.694;7.246;2023-06-14T10:53:45;4.38;;;1.77;;
4096;SDS011;2062;50.694;7.246;2023-06-14T10:56:22;4.90;;;1.90;;
4096;SDS011;2062;50.694;7.246;2023-06-14T10:58:52;4.88;;;2.03;;
4096;SDS011;2062;50.694;7.246;2023-06-14T11:01:23;4.13;;;2.00;;
4096;SDS011;2062;50.694;7.246;2023-06-14T11:04:01;4.32;;;1.70;;
4096;SDS011;2062;50.694;7.246;2023-06-14T11:06:38;4.20;;;1.85;;
4096;SDS011;2062;50.694;7.246;2023-06-14T11:09:20;3.50;;;1.70;;
4096;SDS011;2062;50.694;7.246;2023-06-14T11:12:06;5.50;;;2.40;;
4096;SDS011;2062;50.694;7.246;2023-06-14T11:14:38;5.00;;;1.80;;
4096;SDS011;2062;50.694;7.246;2023-06-14T11:17:05;3.53;;;1.60;;
4096;SDS011;2062;50.694;7.246;2023-06-14T11:19:32;4.05;;;1.50;;
4096;SDS011;2062;50.694;7.246;2023-06-14T11:21:59;3.67;;;1.50;;
4096;SDS011;2062;50.694;7.246;2023-06-14T11:24:26;3.75;;;1.60;;
4096;SDS011;2062;50.694;7.246;2023-06-14T11:26:52;3.80;;;1.60;;
4096;SDS011;2062;50.694;7.246;2023-06-14T11:29:21;4.88;;;1.80;;
4096;SDS011;2062;50.694;7.246;2023-06-14T11:31:50;3.60;;;1.70;;
4096;SDS011;2062;50.694;7.246;2023-06-14T11:34:17;4.13;;;1.40;;
4096;SDS011;2062;50.694;7.246;2023-06-14T11:36:45;5.05;;;1.70;;
4096;SDS011;2062;50.694;7.246;2023-06-14T11:39:12;5.40;;;1.83;;
4096;SDS011;2062;50.694;7.246;2023-06-14T11:41:40;3.97;;;1.60;;
4096;SDS011;2062;50.694;7.246;2023-06-14T11:44:08;4.38;;;1.83;;
4096;SDS011;2062;50.694;7.246;2023-06-14T11:46:36;3.72;;;1.60;;
4096;SDS011;2062;50.694;7.246;2023-06-14T11:49:06;4.28;;;1.70;;
4096;SDS011;2062;50.694;7.246;2023-06-14T11:51:34;3.67;;;1.60;;
4096;SDS011;2062;50.694;7.246;2023-06-14T11:54:02;4.35;;;1.40;;
4096;SDS011;2062;50.694;7.246;2023-06-14T11:56:29;3.88;;;1.80;;
4096;SDS011;2062;50.694;7.246;2023-06-14T11:58:57;3.53;;;1.40;;
4096;SDS011;2062;50.694;7.246;2023-06-14T12:01:24;4.32;;;1.73;;
4096;SDS011;2062;50.694;7.246;2023-06-14T12:03:52;4.73;;;1.63;;
4096;SDS011;2062;50.694;7.246;2023-06-14T12:06:26;5.22;;;1.92;;
4096;SDS011;2062;50.694;7.246;2023-06-14T12:09:03;3.35;;;1.50;;
4096;SDS011;2062;50.694;7.246;2023-06-14T12:11:32;3.38;;;1.35;;
4096;SDS011;2062;50.694;7.246;2023-06-14T12:14:00;5.70;;;1.75;;
4096;SDS011;2062;50.694;7.246;2023-06-14T12:16:30;3.30;;;1.40;;
4096;SDS011;2062;50.694;7.246;2023-06-14T12:19:00;4.20;;;1.45;;
4096;SDS011;2062;50.694;7.246;2023-06-14T12:21:29;4.28;;;1.70;;
4096;SDS011;2062;50.694;7.246;2023-06-14T12:23:58;3.63;;;1.50;;
4096;SDS011;2062;50.694;7.246;2023-06-14T12:26:24;5.28;;;1.80;;
4096;SDS011;2062;50.694;7.246;2023-06-14T12:28:53;3.70;;;1.50;;
4096;SDS011;2062;50.694;7.246;2023-06-14T12:31:20;4.35;;;1.73;;
4096;SDS011;2062;50.694;7.246;2023-06-14T12:33:47;4.13;;;1.70;;
4096;SDS011;2062;50.694;7.246;2023-06-14T12:36:16;3.60;;;1.67;;
4096;SDS011;2062;50.694;7.246;2023-06-14T12:38:44;4.57;;;2.08;;
4096;SDS011;2062;50.694;7.246;2023-06-14T12:41:11;6.00;;;1.80;;
4096;SDS011;2062;50.694;7.246;2023-06-14T12:43:39;6.28;;;1.65;;
4096;SDS011;2062;50.694;7.246;2023-06-14T12:46:06;5.05;;;2.17;;
4096;SDS011;2062;50.694;7.246;2023-06-14T12:48:33;4.50;;;2.00;;
4096;SDS011;2062;50.694;7.246;2023-06-14T12:51:00;4.97;;;2.20;;
4096;SDS011;2062;50.694;7.246;2023-06-14T12:53:26;4.30;;;1.90;;
4096;SDS011;2062;50.694;7.246;2023-06-14T12:55:55;4.65;;;1.85;;
4096;SDS011;2062;50.694;7.246;2023-06-14T12:58:21;4.88;;;2.13;;
4096;SDS011;2062;50.694;7.246;2023-06-14T13:00:48;6.28;;;2.17;;
4096;SDS011;2062;50.694;7.246;2023-06-14T13:03:15;3.75;;;2.10;;
4096;SDS011;2062;50.694;7.246;2023-06-14T13:05:42;4.30;;;2.10;;
4096;SDS011;2062;50.694;7.246;2023-06-14T13:08:09;6.45;;;1.80;;
4096;SDS011;2062;50.694;7.246;2023-06-14T13:10:36;4.40;;;1.90;;
4096;SDS011;2062;50.694;7.246;2023-06-14T13:13:04;6.15;;;2.30;;
4096;SDS011;2062;50.694;7.246;2023-06-14T13:15:32;4.97;;;2.20;;
4096;SDS011;2062;50.694;7.246;2023-06-14T13:17:59;4.13;;;2.10;;
4096;SDS011;2062;50.694;7.246;2023-06-14T13:20:27;4.53;;;2.10;;
4096;SDS011;2062;50.694;7.246;2023-06-14T13:22:54;4.75;;;2.00;;
4096;SDS011;2062;50.694;7.246;2023-06-14T13:25:21;6.32;;;2.10;;
4096;SDS011;2062;50.694;7.246;2023-06-14T13:27:48;5.18;;;2.60;;
4096;SDS011;2062;50.694;7.246;2023-06-14T13:30:16;4.73;;;2.10;;
4096;SDS011;2062;50.694;7.246;2023-06-14T13:32:43;7.53;;;2.10;;
4096;SDS011;2062;50.694;7.246;2023-06-14T13:35:09;4.60;;;2.40;;
4096;SDS011;2062;50.694;7.246;2023-06-14T13:37:36;4.20;;;2.10;;
4096;SDS011;2062;50.694;7.246;2023-06-14T13:40:03;4.15;;;2.25;;
4096;SDS011;2062;50.694;7.246;2023-06-14T13:42:31;6.07;;;2.30;;
4096;SDS011;2062;50.694;7.246;2023-06-14T13:44:58;4.10;;;2.00;;
4096;SDS011;2062;50.694;7.246;2023-06-14T13:47:26;5.68;;;2.10;;
4096;SDS011;2062;50.694;7.246;2023-06-14T13:49:53;5.25;;;2.40;;
4096;SDS011;2062;50.694;7.246;2023-06-14T13:52:20;4.85;;;2.38;;
4096;SDS011;2062;50.694;7.246;2023-06-14T13:54:47;4.90;;;2.00;;
4096;SDS011;2062;50.694;7.246;2023-06-14T13:57:14;4.20;;;2.17;;
4096;SDS011;2062;50.694;7.246;2023-06-14T13:59:40;6.03;;;2.38;;
4096;SDS011;2062;50.694;7.246;2023-06-14T14:02:09;4.22;;;2.17;;
4096;SDS011;2062;50.694;7.246;2023-06-14T14:04:37;5.70;;;2.10;;
4096;SDS011;2062;50.694;7.246;2023-06-14T14:07:05;3.80;;;2.20;;
4096;SDS011;2062;50.694;7.246;2023-06-14T14:09:32;4.38;;;2.20;;
4096;SDS011;2062;50.694;7.246;2023-06-14T14:11:59;5.25;;;2.10;;
4096;SDS011;2062;50.694;7.246;2023-06-14T14:14:26;4.13;;;2.25;;
4096;SDS011;2062;50.694;7.246;2023-06-14T14:16:53;5.75;;;2.33;;
4096;SDS011;2062;50.694;7.246;2023-06-14T14:19:20;3.73;;;1.90;;
4096;SDS011;2062;50.694;7.246;2023-06-14T14:21:48;4.05;;;2.00;;
4096;SDS011;2062;50.694;7.246;2023-06-14T14:24:15;4.63;;;2.25;;
4096;SDS011;2062;50.694;7.246;2023-06-14T14:26:42;4.30;;;2.65;;
4096;SDS011;2062;50.694;7.246;2023-06-14T14:29:12;4.68;;;2.50;;
4096;SDS011;2062;50.694;7.246;2023-06-14T14:31:39;6.00;;;2.33;;
4096;SDS011;2062;50.694;7.246;2023-06-14T14:34:06;4.80;;;2.45;;
4096;SDS011;2062;50.694;7.246;2023-06-14T14:36:32;4.75;;;2.10;;
4096;SDS011;2062;50.694;7.246;2023-06-14T14:39:04;6.25;;;2.03;;
4096;SDS011;2062;50.694;7.246;2023-06-14T14:41:32;4.45;;;2.25;;
4096;SDS011;2062;50.694;7.246;2023-06-14T14:43:58;5.10;;;2.40;;
4096;SDS011;2062;50.694;7.246;2023-06-14T14:46:25;4.55;;;2.10;;
4096;SDS011;2062;50.694;7.246;2023-06-14T14:48:53;4.05;;;2.17;;
4096;SDS011;2062;50.694;7.246;2023-06-14T14:51:19;5.88;;;2.55;;
4096;SDS011;2062;50.694;7.246;2023-06-14T14:53:46;6.47;;;2.40;;
4096;SDS011;2062;50.694;7.246;2023-06-14T14:56:14;3.90;;;2.00;;
4096;SDS011;2062;50.694;7.246;2023-06-14T14:58:42;6.70;;;2.13;;
4096;SDS011;2062;50.694;7.246;2023-06-14T15:01:09;4.40;;;2.33;;
4096;SDS011;2062;50.694;7.246;2023-06-14T15:03:35;6.90;;;2.20;;
4096;SDS011;2062;50.694;7.246;2023-06-14T15:06:02;5.25;;;2.70;;
4096;SDS011;2062;50.694;7.246;2023-06-14T15:08:30;4.87;;;2.10;;
4096;SDS011;2062;50.694;7.246;2023-06-14T15:10:56;3.90;;;2.00;;
4096;SDS011;2062;50.694;7.246;2023-06-14T15:13:25;4.80;;;2.45;;
4096;SDS011;2062;50.694;7.246;2023-06-14T15:15:53;5.20;;;2.13;;
4096;SDS011;2062;50.694;7.246;2023-06-14T15:18:20;5.38;;;2.55;;
4096;SDS011;2062;50.694;7.246;2023-06-14T15:20:48;4.23;;;2.40;;
4096;SDS011;2062;50.694;7.246;2023-06-14T15:23:15;4.40;;;2.47;;
4096;SDS011;2062;50.694;7.246;2023-06-14T15:25:44;4.13;;;2.30;;